Wetterdaten: aktuell Mittwoch, 29.03.2017 11:14
Datum Zeit Temp. A. Feuchte A. Luftdruck Regen Wind Richtung Richtung Taupunkt Windchill Windben
29.03.2017 11:14 12,3 C 73 % 1026,9 hPa 0,0 l/m 8,0 km/h (2 Bft) SO 132 7,6 C 12,3 C 9,7 km/h (2 Bft)
29.03.2017 11:13 12,3 C 72 % 1027,0 hPa 0,0 l/m 8,3 km/h (2 Bft) SO 126 7,4 C 12,3 C 11,3 km/h (2 Bft)
29.03.2017 11:12 12,2 C 73 % 1027,0 hPa 0,0 l/m 12,1 km/h (2 Bft) SO 128 7,5 C 12,2 C 17,7 km/h (3 Bft)
29.03.2017 11:11 12,2 C 74 % 1027,0 hPa 0,0 l/m 10,5 km/h (2 Bft) S-SO 147 7,7 C 12,2 C 16,1 km/h (3 Bft)
29.03.2017 11:10 12,1 C 74 % 1027,0 hPa 0,0 l/m 7,0 km/h (2 Bft) O-SO 113 7,6 C 12,1 C 14,5 km/h (3 Bft)
29.03.2017 11:09 12,1 C 73 % 1027,0 hPa 0,0 l/m 6,3 km/h (2 Bft) SO 132 7,4 C 12,1 C 11,3 km/h (2 Bft)
29.03.2017 11:08 12,1 C 73 % 1026,9 hPa 0,0 l/m 4,5 km/h (1 Bft) SO 133 7,4 C 12,1 C 11,3 km/h (2 Bft)
29.03.2017 11:07 12,1 C 74 % 1026,9 hPa 0,0 l/m 6,9 km/h (2 Bft) O 99 7,6 C 12,1 C 11,3 km/h (2 Bft)
29.03.2017 11:06 12,0 C 74 % 1027,0 hPa 0,0 l/m 6,1 km/h (2 Bft) O-SO 121 7,5 C 12,0 C 12,9 km/h (3 Bft)
29.03.2017 11:05 11,9 C 73 % 1027,0 hPa 0,0 l/m 3,2 km/h (1 Bft) S-SO 150 7,2 C 11,9 C 8,0 km/h (2 Bft)
29.03.2017 11:04 11,9 C 73 % 1027,0 hPa 0,0 l/m 2,5 km/h (1 Bft) O-SO 117 7,2 C 11,9 C 8,0 km/h (2 Bft)
29.03.2017 11:03 11,8 C 73 % 1027,0 hPa 0,0 l/m 6,4 km/h (2 Bft) SO 128 7,1 C 11,8 C 11,3 km/h (2 Bft)
29.03.2017 11:02 11,9 C 73 % 1027,0 hPa 0,0 l/m 7,9 km/h (2 Bft) SO 142 7,2 C 11,9 C 11,3 km/h (2 Bft)
29.03.2017 11:01 11,9 C 73 % 1027,1 hPa 0,0 l/m 8,2 km/h (2 Bft) O-SO 114 7,2 C 11,9 C 11,3 km/h (2 Bft)
29.03.2017 11:00 11,8 C 74 % 1027,1 hPa 0,0 l/m 8,5 km/h (2 Bft) S-SO 149 7,3 C 11,8 C 12,9 km/h (3 Bft)
29.03.2017 10:59 11,8 C 75 % 1027,0 hPa 0,0 l/m 7,7 km/h (2 Bft) S-SO 148 7,5 C 11,8 C 12,9 km/h (3 Bft)
29.03.2017 10:58 11,7 C 74 % 1026,9 hPa 0,0 l/m 5,6 km/h (2 Bft) O-SO 106 7,2 C 11,7 C 9,7 km/h (2 Bft)
29.03.2017 10:57 11,7 C 73 % 1027,0 hPa 0,0 l/m 7,0 km/h (2 Bft) O 92 7,0 C 11,7 C 11,3 km/h (2 Bft)
29.03.2017 10:56 11,7 C 73 % 1027,0 hPa 0,0 l/m 8,7 km/h (2 Bft) S-SO 157 7,0 C 11,7 C 12,9 km/h (3 Bft)
29.03.2017 10:55 11,7 C 74 % 1027,0 hPa 0,0 l/m 8,2 km/h (2 Bft) SO 145 7,2 C 11,7 C 12,9 km/h (3 Bft)
29.03.2017 10:54 11,7 C 73 % 1027,0 hPa 0,0 l/m 10,4 km/h (2 Bft) S-SO 155 7,0 C 11,7 C 12,9 km/h (3 Bft)
29.03.2017 10:53 11,7 C 73 % 1026,9 hPa 0,0 l/m 6,9 km/h (2 Bft) S-SO 150 7,0 C 11,7 C 12,9 km/h (3 Bft)
29.03.2017 10:52 11,7 C 73 % 1026,9 hPa 0,0 l/m 5,5 km/h (2 Bft) O-SO 109 7,0 C 11,7 C 8,0 km/h (2 Bft)
29.03.2017 10:51 11,8 C 74 % 1026,9 hPa 0,0 l/m 10,5 km/h (2 Bft) SO 130 7,3 C 11,8 C 14,5 km/h (3 Bft)
29.03.2017 10:50 11,7 C 74 % 1026,9 hPa 0,0 l/m 6,0 km/h (2 Bft) SO 144 7,2 C 11,7 C 9,7 km/h (2 Bft)
29.03.2017 10:49 11,7 C 74 % 1026,9 hPa 0,0 l/m 4,1 km/h (1 Bft) O 87 7,2 C 11,7 C 6,4 km/h (2 Bft)
29.03.2017 10:48 11,7 C 73 % 1026,9 hPa 0,0 l/m 6,1 km/h (2 Bft) O 86 7,0 C 11,7 C 8,0 km/h (2 Bft)
29.03.2017 10:47 11,7 C 74 % 1026,9 hPa 0,0 l/m 9,0 km/h (2 Bft) S-SO 147 7,2 C 11,7 C 12,9 km/h (3 Bft)
29.03.2017 10:46 11,6 C 74 % 1027,0 hPa 0,0 l/m 8,6 km/h (2 Bft) O-SO 116 7,1 C 11,6 C 11,3 km/h (2 Bft)
29.03.2017 10:45 11,5 C 74 % 1027,0 hPa 0,0 l/m 9,0 km/h (2 Bft) SO 129 7,0 C 11,5 C 12,9 km/h (3 Bft)
29.03.2017 10:44 11,4 C 75 % 1027,0 hPa 0,0 l/m 6,5 km/h (2 Bft) SO 141 7,1 C 11,4 C 8,0 km/h (2 Bft)
29.03.2017 10:43 11,3 C 73 % 1027,0 hPa 0,0 l/m 7,9 km/h (2 Bft) SO 135 6,6 C 11,3 C 9,7 km/h (2 Bft)
29.03.2017 10:42 11,3 C 74 % 1027,0 hPa 0,0 l/m 7,6 km/h (2 Bft) SO 136 6,8 C 11,3 C 9,7 km/h (2 Bft)
29.03.2017 10:41 11,3 C 74 % 1027,0 hPa 0,0 l/m 8,0 km/h (2 Bft) O-SO 114 6,8 C 11,3 C 11,3 km/h (2 Bft)
29.03.2017 10:40 11,2 C 74 % 1027,0 hPa 0,0 l/m 9,3 km/h (2 Bft) SO 128 6,7 C 11,2 C 11,3 km/h (2 Bft)
29.03.2017 10:39 11,1 C 74 % 1027,0 hPa 0,0 l/m 5,0 km/h (1 Bft) O-SO 114 6,6 C 11,1 C 9,7 km/h (2 Bft)
29.03.2017 10:38 11,1 C 74 % 1027,0 hPa 0,0 l/m 3,5 km/h (1 Bft) O-SO 123 6,6 C 11,1 C 6,4 km/h (2 Bft)
29.03.2017 10:37 11,1 C 74 % 1027,1 hPa 0,0 l/m 8,9 km/h (2 Bft) SO 130 6,6 C 11,1 C 12,9 km/h (3 Bft)
29.03.2017 10:36 11,1 C 74 % 1027,1 hPa 0,0 l/m 10,0 km/h (2 Bft) S-SO 148 6,6 C 11,1 C 12,9 km/h (3 Bft)
29.03.2017 10:35 11,0 C 74 % 1027,0 hPa 0,0 l/m 12,0 km/h (2 Bft) S-SO 152 6,5 C 11,0 C 16,1 km/h (3 Bft)
29.03.2017 10:34 10,9 C 75 % 1027,0 hPa 0,0 l/m 9,2 km/h (2 Bft) SO 142 6,6 C 10,9 C 12,9 km/h (3 Bft)
29.03.2017 10:33 10,8 C 74 % 1027,0 hPa 0,0 l/m 6,8 km/h (2 Bft) SO 143 6,4 C 10,8 C 9,7 km/h (2 Bft)
29.03.2017 10:32 10,7 C 74 % 1027,0 hPa 0,0 l/m 11,0 km/h (2 Bft) SO 146 6,3 C 10,7 C 14,5 km/h (3 Bft)
29.03.2017 10:31 10,7 C 74 % 1027,0 hPa 0,0 l/m 7,0 km/h (2 Bft) SO 139 6,3 C 10,7 C 12,9 km/h (3 Bft)
29.03.2017 10:30 10,6 C 74 % 1027,0 hPa 0,0 l/m 7,8 km/h (2 Bft) SO 138 6,2 C 10,6 C 11,3 km/h (2 Bft)
29.03.2017 10:29 10,6 C 74 % 1026,9 hPa 0,0 l/m 7,2 km/h (2 Bft) SO 146 6,2 C 10,6 C 9,7 km/h (2 Bft)
29.03.2017 10:28 10,6 C 74 % 1027,0 hPa 0,0 l/m 8,7 km/h (2 Bft) S-SO 147 6,2 C 10,6 C 11,3 km/h (2 Bft)
29.03.2017 10:27 10,6 C 74 % 1026,9 hPa 0,0 l/m 3,8 km/h (1 Bft) S-SO 148 6,2 C 10,6 C 8,0 km/h (2 Bft)
29.03.2017 10:26 10,5 C 75 % 1026,9 hPa 0,0 l/m 4,7 km/h (1 Bft) SO 128 6,3 C 10,5 C 8,0 km/h (2 Bft)
29.03.2017 10:25 10,4 C 74 % 1026,9 hPa 0,0 l/m 4,9 km/h (1 Bft) SO 134 6,0 C 10,4 C 8,0 km/h (2 Bft)
29.03.2017 10:24 10,4 C 73 % 1026,9 hPa 0,0 l/m 7,1 km/h (2 Bft) SO 141 5,8 C 10,4 C 9,7 km/h (2 Bft)
_ Min-Zeit 05:45 16:14 17:28 - 04:05 - - 12:34 06:09 03:01
Minimum _ 5,4 C 38 % 1022,4 hPa - 0,0 km/h (0 Bft) - - 0,8 C 4,3 C 0,0 km/h (0 Bft)
_ Max-Zeit 16:21 06:24 10:36 12:00 12:54 - - 11:11 16:21 14:29
Maximum _ 16,2 C 84 % 1027,1 hPa 0,0 l/m 18,9 km/h
S-SO (3 Bft)
- - 7,7 C 16,2 C 25,7 km/h
S-SO (4 Bft)
Durchschnitt _ 10,3 C 64 % 1024,4 hPa #0,0 l/m 5,4 km/h (2 Bft) W - 3,4 C 10,2 C 7,9 km/h (2 Bft)
Wetterstation Eggerszell